Nortonville, Kansas
Current Conditions -  °F | °C
As of 7:52 AM on Sunday 23 Nov 2014 (Local Time) from KLWC Reporting Station
Haze Haze  
Wind Chill: 54°   Ceiling: 800
Heat Index: 54°   Visibility: 5mi
Dew Point: 52°   Wind: 3mph
Humidity: 93%   Direction: 140°SE
Pressure: 29.51"   Gusts: NA
Location:  39.42°N, 95.33°W
Report Text: KLWC 231352Z AUTO 14003KT 5SM BR OVC008 12/11 A2951 RMK AO2 SLP992 T01220111
Loading
Personal Weather Stations






























Interactive Weather Map New forecast layout! Learn more

10-Day Weather Forecast

Advertisements
Track Severe Weather on mobile